createdAt,value
2019-06-20T00:00:47.898Z,17.66
2019-06-20T00:03:16.670Z,17.73
2019-06-20T00:05:45.119Z,17.74
2019-06-20T00:08:13.651Z,17.79
2019-06-20T00:10:42.434Z,17.74
2019-06-20T00:13:12.995Z,17.80
2019-06-20T00:15:41.462Z,17.83
2019-06-20T00:18:09.972Z,17.79
2019-06-20T00:20:38.454Z,17.79
2019-06-20T00:23:06.979Z,17.77
2019-06-20T00:25:35.439Z,17.70
2019-06-20T00:28:03.940Z,17.70
2019-06-20T00:30:32.453Z,17.68
2019-06-20T00:33:00.933Z,17.67
2019-06-20T00:35:29.351Z,17.67
2019-06-20T00:37:57.793Z,17.59
2019-06-20T00:40:26.280Z,17.56
2019-06-20T00:42:54.718Z,17.64
2019-06-20T00:45:23.279Z,17.66
2019-06-20T00:47:51.706Z,17.60
2019-06-20T00:50:20.126Z,17.65
2019-06-20T00:52:48.572Z,17.58
2019-06-20T00:55:17.006Z,17.54
2019-06-20T00:57:45.448Z,17.49
2019-06-20T01:00:14.803Z,17.47
2019-06-20T01:02:43.241Z,17.52
2019-06-20T01:05:11.749Z,17.42
2019-06-20T01:07:40.231Z,17.48
2019-06-20T01:10:09.112Z,17.53
2019-06-20T01:12:37.516Z,17.45
2019-06-20T01:15:08.643Z,17.48
2019-06-20T01:17:37.226Z,17.46
2019-06-20T01:20:08.545Z,17.46
2019-06-20T01:22:37.062Z,17.48
2019-06-20T01:25:08.906Z,17.46
2019-06-20T01:27:40.109Z,17.45
2019-06-20T01:30:09.983Z,17.44
2019-06-20T01:32:38.546Z,17.52
2019-06-20T01:35:08.518Z,17.48
2019-06-20T01:37:37.103Z,17.48
2019-06-20T01:40:06.881Z,17.51
2019-06-20T01:42:35.376Z,17.48
2019-06-20T01:45:07.375Z,17.41
2019-06-20T01:47:36.142Z,17.35
2019-06-20T01:50:07.128Z,17.36
2019-06-20T01:52:35.532Z,17.34
2019-06-20T01:55:05.991Z,17.32
2019-06-20T01:57:34.509Z,17.29
2019-06-20T02:00:03.134Z,17.20
2019-06-20T02:02:31.787Z,17.17
2019-06-20T02:05:00.258Z,17.19
2019-06-20T02:07:28.707Z,17.16
2019-06-20T02:09:57.152Z,17.11
2019-06-20T02:12:25.570Z,17.08
2019-06-20T02:14:53.987Z,17.10
2019-06-20T02:17:22.430Z,17.08
2019-06-20T02:19:50.850Z,17.05
2019-06-20T02:22:19.289Z,17.06
2019-06-20T02:24:47.732Z,16.99
2019-06-20T02:27:16.159Z,16.99
2019-06-20T02:29:44.808Z,16.94
2019-06-20T02:32:13.260Z,16.93
2019-06-20T02:34:41.669Z,16.95
2019-06-20T02:37:10.127Z,16.93
2019-06-20T02:39:38.542Z,16.85
2019-06-20T02:42:06.991Z,16.85
2019-06-20T02:44:35.411Z,16.88
2019-06-20T02:47:03.931Z,16.89
2019-06-20T02:49:32.343Z,16.87
2019-06-20T02:52:00.774Z,16.85
2019-06-20T02:54:29.766Z,16.82
2019-06-20T02:56:58.203Z,16.79
2019-06-20T02:59:26.623Z,16.75
2019-06-20T03:01:55.056Z,16.75
2019-06-20T03:04:23.479Z,16.74
2019-06-20T03:06:52.381Z,16.73
2019-06-20T03:09:20.815Z,16.72
2019-06-20T03:11:49.243Z,16.67
2019-06-20T03:14:17.655Z,16.72
2019-06-20T03:16:46.106Z,16.68
2019-06-20T03:19:14.524Z,16.67
2019-06-20T03:21:42.967Z,16.66
2019-06-20T03:24:11.385Z,16.70
2019-06-20T03:26:39.792Z,16.70
2019-06-20T03:29:08.236Z,16.71
2019-06-20T03:31:36.648Z,16.76
2019-06-20T03:34:05.236Z,16.76
2019-06-20T03:36:33.658Z,16.78
2019-06-20T03:39:02.083Z,16.78
2019-06-20T03:41:30.511Z,16.73
2019-06-20T03:43:59.212Z,16.73
2019-06-20T03:46:27.858Z,16.83
2019-06-20T03:48:56.283Z,16.82
2019-06-20T03:51:24.763Z,16.84
2019-06-20T03:53:53.198Z,16.86
2019-06-20T03:56:21.614Z,16.87
2019-06-20T03:58:50.056Z,16.90
2019-06-20T04:01:18.478Z,16.88
2019-06-20T04:03:46.889Z,16.90
2019-06-20T04:06:15.346Z,16.93
2019-06-20T04:08:43.825Z,16.96
2019-06-20T04:11:12.266Z,16.98
2019-06-20T04:13:40.691Z,16.98
2019-06-20T04:16:09.199Z,17.04
2019-06-20T04:18:37.882Z,17.04
2019-06-20T04:21:06.302Z,17.08
2019-06-20T04:23:34.793Z,17.15
2019-06-20T04:26:03.235Z,17.16
2019-06-20T04:28:31.653Z,17.19
2019-06-20T04:31:00.148Z,17.16
2019-06-20T04:33:28.583Z,17.16
2019-06-20T04:35:57.016Z,17.20
2019-06-20T04:38:25.441Z,17.20
2019-06-20T04:40:53.858Z,17.11
2019-06-20T04:43:22.284Z,17.14
2019-06-20T04:46:10.135Z,17.19
2019-06-20T04:48:38.635Z,17.22
2019-06-20T04:51:07.083Z,17.22
2019-06-20T04:53:35.510Z,17.28
2019-06-20T04:56:05.819Z,17.38
2019-06-20T04:58:34.166Z,17.50
2019-06-20T05:01:02.599Z,17.61
2019-06-20T05:03:31.140Z,17.64
2019-06-20T05:05:59.566Z,17.68
2019-06-20T05:08:27.996Z,17.75
2019-06-20T05:10:56.426Z,17.86
2019-06-20T05:13:24.864Z,17.92
2019-06-20T05:15:53.630Z,17.90
2019-06-20T05:18:22.239Z,17.91
2019-06-20T05:20:50.879Z,17.93
2019-06-20T05:23:19.276Z,17.89
2019-06-20T05:25:47.708Z,17.90
2019-06-20T05:28:16.139Z,17.90
2019-06-20T05:30:45.056Z,17.90
2019-06-20T05:33:13.488Z,17.92
2019-06-20T05:35:42.671Z,17.91
2019-06-20T05:38:11.136Z,17.87
2019-06-20T05:40:39.539Z,17.86
2019-06-20T05:43:07.996Z,17.88
2019-06-20T05:45:36.433Z,17.89
2019-06-20T05:48:05.536Z,17.93
2019-06-20T05:50:33.981Z,17.91
2019-06-20T05:53:02.416Z,17.94
2019-06-20T05:55:30.836Z,17.96
2019-06-20T05:57:59.591Z,18.06
2019-06-20T06:00:28.190Z,18.09
2019-06-20T06:02:56.614Z,18.22
2019-06-20T06:05:25.120Z,18.30
2019-06-20T06:07:53.534Z,18.44
2019-06-20T06:10:22.043Z,18.64
2019-06-20T06:12:50.478Z,19.00
2019-06-20T06:15:20.320Z,19.60
2019-06-20T06:17:48.774Z,19.92
2019-06-20T06:20:18.632Z,19.92
2019-06-20T06:22:47.059Z,20.05
2019-06-20T06:25:15.951Z,19.92
2019-06-20T06:27:44.357Z,19.97
2019-06-20T06:30:13.723Z,19.86
2019-06-20T06:32:42.241Z,19.86
2019-06-20T06:35:11.192Z,19.80
2019-06-20T06:37:40.671Z,19.79
2019-06-20T06:40:10.560Z,19.81
2019-06-20T06:42:39.049Z,19.91
2019-06-20T06:45:08.925Z,20.05
2019-06-20T06:47:37.367Z,20.07
2019-06-20T06:50:06.835Z,20.22
2019-06-20T06:52:35.549Z,20.38
2019-06-20T06:55:05.102Z,20.45
2019-06-20T06:57:33.614Z,20.50
2019-06-20T07:00:02.080Z,20.60
2019-06-20T07:02:30.559Z,20.56
2019-06-20T07:04:59.021Z,20.80
2019-06-20T07:07:27.451Z,21.09
2019-06-20T07:09:55.945Z,21.08
2019-06-20T07:12:24.397Z,21.26
2019-06-20T07:14:52.825Z,21.32
2019-06-20T07:17:21.292Z,21.71
2019-06-20T07:19:49.720Z,21.81
2019-06-20T07:22:18.135Z,22.24
2019-06-20T07:24:46.587Z,22.22
2019-06-20T07:27:15.002Z,22.08
2019-06-20T07:29:43.492Z,21.95
2019-06-20T07:32:11.932Z,21.69
2019-06-20T07:34:40.361Z,21.80
2019-06-20T07:37:08.869Z,21.56
2019-06-20T07:39:37.285Z,21.62
2019-06-20T07:42:05.767Z,21.63
2019-06-20T07:44:34.210Z,21.79
2019-06-20T07:47:16.726Z,21.99
2019-06-20T07:49:32.916Z,22.41
2019-06-20T07:52:01.376Z,22.36
2019-06-20T07:54:29.798Z,22.35
2019-06-20T07:56:58.230Z,22.44
2019-06-20T07:59:26.648Z,22.72
2019-06-20T08:01:55.136Z,22.80
2019-06-20T08:04:23.589Z,23.24
2019-06-20T08:06:52.008Z,23.40
2019-06-20T08:09:22.170Z,23.43
2019-06-20T08:11:50.761Z,22.30
2019-06-20T08:14:19.614Z,22.61
2019-06-20T08:16:48.055Z,22.37
2019-06-20T08:19:16.469Z,22.15
2019-06-20T08:21:44.946Z,22.21
2019-06-20T08:24:13.386Z,22.24
2019-06-20T08:26:41.823Z,22.30
2019-06-20T08:29:20.871Z,22.35
2019-06-20T08:31:40.508Z,22.12
2019-06-20T08:34:08.925Z,22.05
2019-06-20T08:36:37.370Z,21.85
2019-06-20T08:39:08.857Z,22.21
2019-06-20T08:41:37.417Z,22.20
2019-06-20T08:44:06.785Z,22.28
2019-06-20T08:46:35.634Z,22.39
2019-06-20T08:49:05.674Z,21.92
2019-06-20T08:51:34.478Z,22.16
2019-06-20T08:54:03.430Z,22.04
2019-06-20T08:56:32.163Z,22.15
2019-06-20T08:59:00.686Z,22.24
2019-06-20T09:01:29.848Z,22.53
2019-06-20T09:03:58.663Z,22.55
2019-06-20T09:06:27.203Z,22.60
2019-06-20T09:08:57.044Z,22.99
2019-06-20T09:11:25.768Z,23.38
2019-06-20T09:13:55.368Z,23.37
2019-06-20T09:16:24.948Z,23.61
2019-06-20T09:18:54.924Z,23.64
2019-06-20T09:21:23.953Z,23.86
2019-06-20T09:23:54.029Z,23.81
2019-06-20T09:26:22.540Z,24.01
2019-06-20T09:28:52.371Z,23.94
2019-06-20T09:31:21.172Z,23.83
2019-06-20T09:33:49.609Z,23.83
2019-06-20T09:36:18.030Z,23.69
2019-06-20T09:38:46.453Z,23.54
2019-06-20T09:41:14.871Z,23.44
2019-06-20T09:43:43.299Z,23.58
2019-06-20T09:46:11.724Z,23.77
2019-06-20T09:48:40.133Z,23.92
2019-06-20T09:51:08.556Z,24.00
2019-06-20T09:53:37.004Z,24.16
2019-06-20T09:56:05.485Z,24.23
2019-06-20T09:58:33.930Z,24.29
2019-06-20T10:01:02.420Z,24.18
2019-06-20T10:03:30.810Z,24.23
2019-06-20T10:05:59.290Z,24.24
2019-06-20T10:08:27.685Z,24.31
2019-06-20T10:10:56.335Z,24.19
2019-06-20T10:13:24.837Z,24.37
2019-06-20T10:15:53.546Z,24.54
2019-06-20T10:18:22.179Z,24.86
2019-06-20T10:20:51.178Z,24.74
2019-06-20T10:23:19.963Z,24.89
2019-06-20T10:25:49.276Z,24.70
2019-06-20T10:28:19.035Z,24.65
2019-06-20T10:30:48.655Z,24.27
2019-06-20T10:33:17.391Z,24.11
2019-06-20T10:35:46.937Z,23.78
2019-06-20T10:38:15.679Z,23.87
2019-06-20T10:40:46.064Z,24.04
2019-06-20T10:43:14.290Z,24.08
2019-06-20T10:45:44.695Z,24.18
2019-06-20T10:48:13.435Z,24.26
2019-06-20T10:50:42.606Z,24.35
2019-06-20T10:53:12.110Z,24.69
2019-06-20T10:55:41.969Z,24.60
2019-06-20T10:58:11.184Z,24.60
2019-06-20T11:00:39.818Z,24.35
2019-06-20T11:03:09.935Z,24.25
2019-06-20T11:05:39.295Z,24.23
2019-06-20T11:08:08.569Z,24.15
2019-06-20T11:10:38.659Z,24.28
2019-06-20T11:13:07.441Z,24.34
2019-06-20T11:15:35.958Z,24.58
2019-06-20T11:18:04.445Z,24.39
2019-06-20T11:20:33.468Z,24.17
2019-06-20T11:23:01.888Z,24.37
2019-06-20T11:25:30.456Z,24.43
2019-06-20T11:27:58.898Z,24.20
2019-06-20T11:30:44.555Z,24.60
2019-06-20T11:33:00.358Z,24.85
2019-06-20T11:35:28.768Z,24.88
2019-06-20T11:37:57.194Z,24.87
2019-06-20T11:40:25.767Z,24.75
2019-06-20T11:42:54.190Z,24.88
2019-06-20T11:45:22.952Z,24.87
2019-06-20T11:47:51.401Z,24.94
2019-06-20T11:50:21.039Z,24.92
2019-06-20T11:52:49.611Z,24.81
2019-06-20T11:55:19.681Z,24.81
2019-06-20T11:57:48.109Z,24.66
2019-06-20T12:00:18.725Z,24.90
2019-06-20T12:02:48.280Z,24.88
2019-06-20T12:05:17.420Z,24.77
2019-06-20T12:07:47.658Z,25.01
2019-06-20T12:10:16.932Z,24.85
2019-06-20T12:12:46.801Z,24.94
2019-06-20T12:15:16.946Z,24.78
2019-06-20T12:17:47.037Z,24.77
2019-06-20T12:20:16.186Z,24.57
2019-06-20T12:22:45.033Z,24.29
2019-06-20T12:25:14.634Z,24.38
2019-06-20T12:27:43.321Z,24.37
2019-06-20T12:30:14.499Z,24.44
2019-06-20T12:32:42.955Z,24.50
2019-06-20T12:35:12.015Z,24.59
2019-06-20T12:37:40.643Z,24.72
2019-06-20T12:40:10.500Z,24.55
2019-06-20T12:42:40.925Z,24.61
2019-06-20T12:45:10.573Z,24.84
2019-06-20T12:47:40.212Z,24.82
2019-06-20T12:50:09.739Z,24.80
2019-06-20T12:52:39.413Z,24.89
2019-06-20T12:55:08.928Z,25.02
2019-06-20T12:57:38.606Z,25.10
2019-06-20T13:00:09.614Z,25.10
2019-06-20T13:02:38.686Z,25.13
2019-06-20T13:05:09.588Z,24.91
2019-06-20T13:07:39.217Z,24.71
2019-06-20T13:10:10.314Z,24.75
2019-06-20T13:12:40.676Z,24.93
2019-06-20T13:15:09.526Z,25.10
2019-06-20T13:17:39.312Z,25.13
2019-06-20T13:20:10.921Z,25.21
2019-06-20T13:22:40.875Z,24.86
2019-06-20T13:25:10.198Z,25.16
2019-06-20T13:27:39.761Z,25.26
2019-06-20T13:30:09.985Z,25.09
2019-06-20T13:32:41.183Z,24.97
2019-06-20T13:35:09.460Z,24.71
2019-06-20T13:37:38.458Z,24.68
2019-06-20T13:40:10.883Z,24.64
2019-06-20T13:42:41.759Z,24.83
2019-06-20T13:45:24.508Z,25.05
2019-06-20T13:47:53.062Z,25.12
2019-06-20T13:50:23.447Z,25.01
2019-06-20T13:52:52.418Z,25.22
2019-06-20T13:55:20.918Z,25.14
2019-06-20T13:57:49.692Z,25.22
2019-06-20T14:00:21.262Z,25.21
2019-06-20T14:02:51.572Z,25.15
2019-06-20T14:05:20.139Z,25.14
2019-06-20T14:07:51.815Z,25.09
2019-06-20T14:10:19.944Z,25.18
2019-06-20T14:12:48.912Z,25.11
2019-06-20T14:15:18.507Z,24.84
2019-06-20T14:17:47.490Z,24.83
2019-06-20T14:20:16.461Z,24.77
2019-06-20T14:22:45.232Z,24.96
2019-06-20T14:25:14.307Z,24.95
2019-06-20T14:27:43.969Z,25.04
2019-06-20T14:30:14.458Z,25.03
2019-06-20T14:32:43.253Z,25.10
2019-06-20T14:35:12.794Z,25.12
2019-06-20T14:37:43.479Z,24.79
2019-06-20T14:40:12.518Z,24.66
2019-06-20T14:42:41.014Z,24.71
2019-06-20T14:45:11.083Z,24.63
2019-06-20T14:47:39.505Z,24.73
2019-06-20T14:50:11.651Z,24.70
2019-06-20T14:52:40.129Z,24.73
2019-06-20T14:55:10.497Z,24.83
2019-06-20T14:57:38.945Z,24.79
2019-06-20T15:00:09.841Z,24.79
2019-06-20T15:02:39.142Z,24.87
2019-06-20T15:05:15.783Z,24.95
2019-06-20T15:07:45.706Z,25.00
2019-06-20T15:10:15.811Z,25.07
2019-06-20T15:12:45.753Z,25.13
2019-06-20T15:15:15.040Z,25.18
2019-06-20T15:17:46.483Z,25.02
2019-06-20T15:20:14.835Z,25.05
2019-06-20T15:22:43.345Z,25.06
2019-06-20T15:25:12.820Z,24.99
2019-06-20T15:27:41.367Z,24.88
2019-06-20T15:30:10.196Z,24.93
2019-06-20T15:32:53.081Z,24.93
2019-06-20T15:35:10.124Z,25.02
2019-06-20T15:37:38.561Z,25.03
2019-06-20T15:40:08.039Z,25.04
2019-06-20T15:42:36.549Z,24.99
2019-06-20T15:45:09.433Z,25.04
2019-06-20T15:47:38.319Z,25.03
2019-06-20T15:50:08.655Z,24.95
2019-06-20T15:52:37.096Z,24.86
2019-06-20T15:55:06.682Z,24.82
2019-06-20T15:57:35.283Z,24.84
2019-06-20T16:00:09.509Z,24.88
2019-06-20T16:02:37.919Z,24.97
2019-06-20T16:05:07.702Z,24.76
2019-06-20T16:07:36.184Z,24.73
2019-06-20T16:10:07.023Z,24.80
2019-06-20T16:12:35.504Z,24.83
2019-06-20T16:15:07.020Z,24.91
2019-06-20T16:17:35.481Z,24.95
2019-06-20T16:20:05.048Z,24.87
2019-06-20T16:22:33.495Z,24.88
2019-06-20T16:25:01.924Z,24.98
2019-06-20T16:27:30.339Z,24.99
2019-06-20T16:29:58.886Z,24.98
2019-06-20T16:32:27.357Z,24.88
2019-06-20T16:34:55.795Z,24.80
2019-06-20T16:37:24.245Z,24.93
2019-06-20T16:39:52.672Z,25.02
2019-06-20T16:42:21.088Z,24.97
2019-06-20T16:44:49.526Z,24.88
2019-06-20T16:47:17.936Z,24.90
2019-06-20T16:49:46.369Z,24.84
2019-06-20T16:52:14.809Z,24.85
2019-06-20T16:54:43.236Z,24.89
2019-06-20T16:57:11.658Z,24.80
2019-06-20T16:59:40.102Z,24.83
2019-06-20T17:02:08.516Z,24.65
2019-06-20T17:04:36.947Z,24.66
2019-06-20T17:07:05.449Z,24.68
2019-06-20T17:09:33.856Z,24.65
2019-06-20T17:12:02.305Z,24.59
2019-06-20T17:14:30.717Z,24.62
2019-06-20T17:16:59.135Z,24.55
2019-06-20T17:19:27.599Z,24.54
2019-06-20T17:21:56.001Z,24.60
2019-06-20T17:24:24.436Z,24.45
2019-06-20T17:26:52.858Z,24.41
2019-06-20T17:29:21.290Z,24.45
2019-06-20T17:31:49.739Z,24.43
2019-06-20T17:34:18.153Z,24.40
2019-06-20T17:36:46.589Z,24.36
2019-06-20T17:39:15.103Z,24.34
2019-06-20T17:41:54.778Z,24.25
2019-06-20T17:44:13.677Z,24.26
2019-06-20T17:46:42.179Z,24.17
2019-06-20T17:49:10.877Z,24.15
2019-06-20T17:51:39.450Z,24.09
2019-06-20T17:54:07.867Z,24.02
2019-06-20T17:56:36.448Z,24.01
2019-06-20T17:59:04.919Z,23.98
2019-06-20T18:01:35.982Z,23.93
2019-06-20T18:04:13.311Z,23.89
2019-06-20T18:06:33.807Z,23.91
2019-06-20T18:09:02.295Z,23.85
2019-06-20T18:11:30.736Z,23.80
2019-06-20T18:13:59.224Z,23.81
2019-06-20T18:16:27.697Z,23.75
2019-06-20T18:18:56.198Z,23.70
2019-06-20T18:21:24.683Z,23.70
2019-06-20T18:23:53.123Z,23.62
2019-06-20T18:26:21.579Z,23.57
2019-06-20T18:28:50.354Z,23.52
2019-06-20T18:31:18.822Z,23.56
2019-06-20T18:33:47.235Z,23.45
2019-06-20T18:36:15.685Z,23.39
2019-06-20T18:38:44.121Z,23.36
2019-06-20T18:41:12.551Z,23.30
2019-06-20T18:43:40.984Z,23.31
2019-06-20T18:46:09.548Z,23.23
2019-06-20T18:48:37.968Z,23.21
2019-06-20T18:51:06.499Z,23.12
2019-06-20T18:53:34.918Z,23.16
2019-06-20T18:56:03.354Z,23.16
2019-06-20T18:58:31.804Z,23.05
2019-06-20T19:01:00.295Z,23.01
2019-06-20T19:03:28.741Z,22.92
2019-06-20T19:05:57.172Z,22.86
2019-06-20T19:08:25.593Z,22.87
2019-06-20T19:10:54.033Z,22.80
2019-06-20T19:13:22.531Z,22.74
2019-06-20T19:15:51.012Z,22.72
2019-06-20T19:18:22.913Z,22.66
2019-06-20T19:20:49.573Z,22.61
2019-06-20T19:23:17.998Z,22.57
2019-06-20T19:25:46.427Z,22.43
2019-06-20T19:28:14.848Z,22.39
2019-06-20T19:30:48.878Z,22.16
2019-06-20T19:33:17.513Z,21.74
2019-06-20T19:35:46.023Z,21.23
2019-06-20T19:38:14.447Z,20.60
2019-06-20T19:40:48.156Z,20.35
2019-06-20T19:43:16.758Z,20.07
2019-06-20T19:45:45.819Z,19.89
2019-06-20T19:48:14.734Z,19.98
2019-06-20T19:50:43.939Z,20.04
2019-06-20T19:53:13.199Z,20.02
2019-06-20T19:55:42.269Z,20.15
2019-06-20T19:58:10.852Z,20.07
2019-06-20T20:00:39.321Z,20.14
2019-06-20T20:03:08.202Z,19.55
2019-06-20T20:05:36.830Z,19.40
2019-06-20T20:08:05.819Z,19.19
2019-06-20T20:10:45.665Z,19.26
2019-06-20T20:13:15.497Z,19.26
2019-06-20T20:15:44.694Z,19.21
2019-06-20T20:18:14.161Z,18.94
2019-06-20T20:20:47.290Z,18.83
2019-06-20T20:23:14.348Z,18.72
2019-06-20T20:25:42.870Z,18.74
2019-06-20T20:28:11.375Z,18.69
2019-06-20T20:30:39.873Z,18.70
2019-06-20T20:33:08.384Z,18.71
2019-06-20T20:35:36.808Z,18.73
2019-06-20T20:38:05.388Z,18.73
2019-06-20T20:40:33.828Z,18.67
2019-06-20T20:43:02.294Z,18.62
2019-06-20T20:45:30.735Z,18.66
2019-06-20T20:47:59.158Z,18.52
2019-06-20T20:50:27.583Z,18.43
2019-06-20T20:52:56.060Z,18.54
2019-06-20T20:55:24.527Z,18.60
2019-06-20T20:57:52.952Z,18.54
2019-06-20T21:00:24.440Z,18.52
2019-06-20T21:02:53.914Z,18.47
2019-06-20T21:05:22.410Z,18.47
2019-06-20T21:07:50.925Z,18.48
2019-06-20T21:10:20.002Z,18.43
2019-06-20T21:12:48.478Z,18.30
2019-06-20T21:15:17.543Z,18.36
2019-06-20T21:17:45.951Z,18.32
2019-06-20T21:20:15.048Z,18.26
2019-06-20T21:22:43.485Z,18.22
2019-06-20T21:25:13.985Z,18.27
2019-06-20T21:27:42.427Z,18.22
2019-06-20T21:30:11.988Z,18.15
2019-06-20T21:32:40.512Z,18.18
2019-06-20T21:35:11.448Z,18.19
2019-06-20T21:37:39.889Z,18.21
2019-06-20T21:40:09.471Z,18.19
2019-06-20T21:42:37.896Z,18.22
2019-06-20T21:45:08.682Z,18.22
2019-06-20T21:47:37.105Z,18.13
2019-06-20T21:50:07.325Z,18.22
2019-06-20T21:52:35.760Z,18.26
2019-06-20T21:55:06.223Z,18.23
2019-06-20T21:57:34.657Z,18.16
2019-06-20T22:00:04.911Z,18.15
2019-06-20T22:02:33.420Z,18.15
2019-06-20T22:05:01.867Z,18.18
2019-06-20T22:07:30.316Z,18.22
2019-06-20T22:09:58.830Z,18.22
2019-06-20T22:12:27.349Z,18.22
2019-06-20T22:14:55.806Z,18.14
2019-06-20T22:17:24.229Z,18.12
2019-06-20T22:19:52.681Z,18.18
2019-06-20T22:22:21.112Z,18.09
2019-06-20T22:24:49.566Z,18.11
2019-06-20T22:27:18.020Z,18.11
2019-06-20T22:29:46.441Z,17.98
2019-06-20T22:32:14.909Z,17.96
2019-06-20T22:34:43.352Z,17.96
2019-06-20T22:37:11.830Z,17.97
2019-06-20T22:39:40.330Z,17.92
2019-06-20T22:42:08.748Z,17.96
2019-06-20T22:44:37.199Z,17.81
2019-06-20T22:47:05.719Z,17.82
2019-06-20T22:49:34.147Z,17.84
2019-06-20T22:52:02.679Z,17.86
2019-06-20T22:54:31.147Z,17.71
2019-06-20T22:57:00.474Z,17.70
2019-06-20T22:59:28.897Z,17.73
2019-06-20T23:01:57.440Z,17.70
2019-06-20T23:04:25.867Z,17.69
2019-06-20T23:06:56.625Z,17.71
2019-06-20T23:09:27.286Z,17.68
2019-06-20T23:11:54.684Z,17.63
2019-06-20T23:14:23.130Z,17.64
2019-06-20T23:16:51.571Z,17.55
2019-06-20T23:19:20.045Z,17.54
2019-06-20T23:21:48.488Z,17.51
2019-06-20T23:24:16.880Z,17.48
2019-06-20T23:26:45.326Z,17.53
2019-06-20T23:29:22.701Z,17.47
2019-06-20T23:31:52.974Z,17.49
2019-06-20T23:34:21.550Z,17.50
2019-06-20T23:36:50.091Z,17.46
2019-06-20T23:39:18.558Z,17.36
2019-06-20T23:41:47.071Z,17.40
2019-06-20T23:44:15.519Z,17.43
2019-06-20T23:46:44.014Z,17.36
2019-06-20T23:49:12.457Z,17.36
2019-06-20T23:51:48.294Z,17.33
2019-06-20T23:54:16.797Z,17.38
2019-06-20T23:56:45.245Z,17.38
2019-06-20T23:59:13.661Z,17.37
